Time;durP1;ratioP1;P1;durP2;ratioP2;P2;SDS_P1;SDS_P2;PMS_P1;PMS_P2;Temp;Humidity;BMP_temperature;BMP_pressure;BME280_temperature;BME280_humidity;BME280_pressure;Samples;Min_cycle;Max_cycle;Signal;HPM_P1;HPM_P2
2021/05/11 00:01:32;;;;;;;;;;;16.10;54.80;;;;;;5103992;28;19919;-84
2021/05/11 00:06:46;;;;;;;;;;;16.00;54.90;;;;;;5072908;28;19912;-84
2021/05/11 00:09:14;;;;;;;;;;;16.00;54.90;;;;;;5087319;28;19916;-82
2021/05/11 00:11:48;;;;;;;;;;;16.10;55.10;;;;;;5102608;28;19920;-84
2021/05/11 00:14:14;;;;;;;;;;;16.00;55.00;;;;;;5108488;28;19912;-82
2021/05/11 00:16:47;;;;;;;;;;;16.00;55.10;;;;;;5109873;28;19921;-84
2021/05/11 00:19:13;;;;;;;;;;;15.90;55.20;;;;;;5100595;28;19897;-82
2021/05/11 00:22:01;;;;;;;;;;;15.80;55.30;;;;;;5096733;28;19923;-82
2021/05/11 00:24:56;;;;;;;;;;;15.80;55.40;;;;;;5104824;28;19916;-84
2021/05/11 00:27:21;;;;;;;;;;;15.70;55.60;;;;;;5085283;28;19920;-83
2021/05/11 00:30:09;;;;;;;;;;;15.60;55.70;;;;;;5106074;28;19924;-83
2021/05/11 00:32:56;;;;;;;;;;;15.60;55.80;;;;;;5095090;28;19912;-83
2021/05/11 00:35:28;;;;;;;;;;;15.60;55.90;;;;;;5092937;28;19912;-83
2021/05/11 00:37:53;;;;;;;;;;;15.60;56.10;;;;;;5096583;28;19912;-84
2021/05/11 00:40:19;;;;;;;;;;;15.50;56.10;;;;;;5102944;28;19920;-81
2021/05/11 00:42:49;;;;;;;;;;;15.60;56.30;;;;;;5091103;28;19912;-81
2021/05/11 00:45:35;;;;;;;;;;;15.50;56.40;;;;;;5090076;28;19913;-81
2021/05/11 00:48:25;;;;;;;;;;;15.50;56.50;;;;;;5093604;28;20273;-83
2021/05/11 00:50:56;;;;;;;;;;;15.40;56.50;;;;;;5090975;28;19919;-82
2021/05/11 00:53:25;;;;;;;;;;;15.40;56.60;;;;;;5093849;28;19921;-83
2021/05/11 00:55:51;;;;;;;;;;;15.40;56.70;;;;;;5093943;28;20002;-82
2021/05/11 00:58:22;;;;;;;;;;;15.40;56.80;;;;;;5101502;28;20403;-83
2021/05/11 01:04:19;;;;;;;;;;;15.40;57.00;;;;;;5038433;28;19917;-83
2021/05/11 01:09:57;;;;;;;;;;;15.40;57.40;;;;;;5066778;28;19923;-82
2021/05/11 01:12:29;;;;;;;;;;;15.40;58.10;;;;;;5097813;28;20249;-82
2021/05/11 01:14:54;;;;;;;;;;;15.40;57.60;;;;;;5095556;28;19963;-83
2021/05/11 02:23:58;;;;;;;;;;;14.40;65.60;;;;;;5096830;28;19930;-83
2021/05/11 02:27:04;;;;;;;;;;;14.40;67.40;;;;;;5078404;28;19919;-85
2021/05/11 02:29:40;;;;;;;;;;;14.30;68.10;;;;;;5087233;28;19926;-85
2021/05/11 02:32:08;;;;;;;;;;;14.40;70.10;;;;;;5101053;28;19912;-83
2021/05/11 02:37:48;;;;;;;;;;;14.30;73.50;;;;;;5057153;28;19919;-82
2021/05/11 02:40:24;;;;;;;;;;;14.20;74.20;;;;;;5027000;28;20007;-84
2021/05/11 02:46:32;;;;;;;;;;;14.30;76.10;;;;;;5035105;28;20004;-82
2021/05/11 02:48:52;;;;;;;;;;;14.20;77.40;;;;;;5039097;28;19996;-83
2021/05/11 02:51:28;;;;;;;;;;;14.20;79.70;;;;;;5025464;28;19996;-85
2021/05/11 03:05:43;;;;;;;;;;;14.10;90.00;;;;;;5026565;28;20391;-82
2021/05/11 03:08:37;;;;;;;;;;;14.10;91.20;;;;;;5073948;28;19909;-83
2021/05/11 03:11:05;;;;;;;;;;;14.10;92.30;;;;;;5104777;28;19908;-81
2021/05/11 03:16:26;;;;;;;;;;;14.00;95.40;;;;;;5093652;28;19908;-85
2021/05/11 03:18:58;;;;;;;;;;;13.90;97.70;;;;;;5086011;28;19912;-84
2021/05/11 03:21:46;;;;;;;;;;;13.90;99.50;;;;;;5093999;28;19923;-81
2021/05/11 03:24:19;;;;;;;;;;;13.90;99.90;;;;;;5098987;28;19916;-82
2021/05/11 03:26:57;;;;;;;;;;;;;;;;;;;;;
2021/05/11 03:29:26;;;;;;;;;;;13.90;99.90;;;;;;5082841;28;19988;-83
2021/05/11 03:31:55;;;;;;;;;;;13.90;99.90;;;;;;5090589;28;19919;-82
2021/05/11 03:34:43;;;;;;;;;;;13.90;99.90;;;;;;5090494;28;19912;-81
2021/05/11 03:37:30;;;;;;;;;;;;;;;;;;;;;
2021/05/11 03:39:59;;;;;;;;;;;13.80;99.90;;;;;;5089741;28;19975;-81
2021/05/11 03:45:41;;;;;;;;;;;13.80;99.90;;;;;;5078605;28;19963;-81
2021/05/11 03:48:10;;;;;;;;;;;13.80;99.90;;;;;;5092296;28;19916;-82
2021/05/11 03:50:38;;;;;;;;;;;13.80;99.90;;;;;;5090295;28;19919;-83
2021/05/11 03:53:04;;;;;;;;;;;13.80;99.90;;;;;;5088346;28;19912;-82
2021/05/11 03:55:47;;;;;;;;;;;13.80;99.90;;;;;;5091230;28;19948;-86
2021/05/11 03:58:20;;;;;;;;;;;13.80;99.90;;;;;;5086958;28;19912;-84
2021/05/11 04:00:55;;;;;;;;;;;13.80;99.90;;;;;;5094154;28;19953;-81
2021/05/11 04:03:40;;;;;;;;;;;13.80;99.90;;;;;;5097591;28;19916;-81
2021/05/11 04:06:35;;;;;;;;;;;13.80;99.90;;;;;;5088439;28;19912;-83
2021/05/11 04:09:18;;;;;;;;;;;13.80;99.90;;;;;;5086686;28;19939;-81
2021/05/11 04:16:46;;;;;;;;;;;13.70;99.90;;;;;;5087081;28;20395;-82
2021/05/11 04:19:34;;;;;;;;;;;13.60;99.90;;;;;;5101862;28;19993;-85
2021/05/11 04:22:30;;;;;;;;;;;13.60;99.90;;;;;;5087314;28;19935;-83
2021/05/11 04:25:26;;;;;;;;;;;;;;;;;;;;;
2021/05/11 04:28:17;;;;;;;;;;;13.50;99.90;;;;;;5084120;28;19999;-82
2021/05/11 04:31:06;;;;;;;;;;;13.50;99.90;;;;;;5088329;28;20007;-85
2021/05/11 04:33:37;;;;;;;;;;;13.50;99.90;;;;;;5108108;28;19971;-82
2021/05/11 04:36:33;;;;;;;;;;;13.50;99.90;;;;;;5096897;28;19928;-82
2021/05/11 04:39:27;;;;;;;;;;;13.50;99.90;;;;;;5094262;28;19912;-81
2021/05/11 04:50:32;;;;;;;;;;;13.70;99.90;;;;;;5081882;28;19916;-86
2021/05/11 04:53:19;;;;;;;;;;;13.70;99.90;;;;;;5088079;28;19920;-82
2021/05/11 04:58:40;;;;;;;;;;;13.80;99.90;;;;;;5074890;28;19912;-83
2021/05/11 05:03:57;;;;;;;;;;;14.00;99.90;;;;;;5067158;28;19909;-82
2021/05/11 05:06:30;;;;;;;;;;;14.10;99.90;;;;;;5078812;28;19913;-81
2021/05/11 05:09:50;;;;;;;;;;;;;;;;;;;;;
2021/05/11 05:12:14;;;;;;;;;;;14.30;99.90;;;;;;5005561;28;20382;-79
2021/05/11 05:20:49;;;;;;;;;;;14.50;99.90;;;;;;5080723;28;19912;-84
2021/05/11 05:23:41;;;;;;;;;;;14.50;99.90;;;;;;5108844;28;19912;-80
2021/05/11 05:26:10;;;;;;;;;;;14.50;99.90;;;;;;5085048;28;19912;-81
2021/05/11 05:29:10;;;;;;;;;;;14.50;99.90;;;;;;5080628;28;19923;-83
2021/05/11 05:32:02;;;;;;;;;;;14.50;99.90;;;;;;5081750;28;19913;-82
2021/05/11 05:34:57;;;;;;;;;;;;;;;;;;;;;
2021/05/11 05:37:40;;;;;;;;;;;14.50;99.90;;;;;;5086829;28;20091;-81
2021/05/11 05:40:18;;;;;;;;;;;14.50;99.90;;;;;;5072441;28;19975;-81
2021/05/11 05:42:45;;;;;;;;;;;14.60;99.90;;;;;;5101117;28;19919;-83
2021/05/11 05:45:10;;;;;;;;;;;14.60;99.90;;;;;;5084509;28;19912;-82
2021/05/11 05:47:36;;;;;;;;;;;14.80;99.90;;;;;;5080403;28;19917;-82
2021/05/11 05:50:05;;;;;;;;;;;15.10;99.90;;;;;;5100751;28;19916;-82
2021/05/11 05:52:36;;;;;;;;;;;15.50;99.90;;;;;;5103870;28;19946;-85
2021/05/11 05:55:03;;;;;;;;;;;16.00;99.90;;;;;;5087147;28;19913;-82
2021/05/11 05:57:28;;;;;;;;;;;16.60;99.90;;;;;;5090406;28;19912;-82
2021/05/11 05:59:54;;;;;;;;;;;17.50;99.90;;;;;;5080675;28;19996;-83
2021/05/11 06:02:22;;;;;;;;;;;19.20;99.90;;;;;;5094255;28;19912;-83
2021/05/11 06:04:49;;;;;;;;;;;20.60;99.90;;;;;;5084556;28;19912;-83
2021/05/11 06:07:15;;;;;;;;;;;21.30;99.90;;;;;;5094897;28;19946;-84
2021/05/11 06:09:41;;;;;;;;;;;21.30;99.90;;;;;;5089125;28;19920;-82
2021/05/11 06:12:17;;;;;;;;;;;21.20;99.90;;;;;;5087681;28;19912;-84
2021/05/11 06:17:35;;;;;;;;;;;21.20;99.90;;;;;;5075210;28;19912;-84
2021/05/11 06:20:00;;;;;;;;;;;21.10;99.90;;;;;;5090389;28;19917;-83
2021/05/11 06:22:26;;;;;;;;;;;21.20;99.90;;;;;;5077574;28;19912;-83
2021/05/11 06:24:51;;;;;;;;;;;21.40;99.90;;;;;;5073210;28;19912;-84
2021/05/11 06:27:18;;;;;;;;;;;21.60;99.90;;;;;;5067875;28;19913;-83
2021/05/11 06:29:45;;;;;;;;;;;21.60;99.90;;;;;;5097191;28;19916;-83
2021/05/11 06:32:11;;;;;;;;;;;21.30;99.90;;;;;;5095562;28;19920;-84
2021/05/11 06:34:40;;;;;;;;;;;21.00;99.90;;;;;;5095518;28;19920;-81
2021/05/11 06:37:06;;;;;;;;;;;20.70;99.90;;;;;;5080736;28;19920;-82
2021/05/11 06:39:31;;;;;;;;;;;20.40;99.90;;;;;;5076195;28;19909;-83
2021/05/11 06:41:58;;;;;;;;;;;20.20;99.90;;;;;;5074481;28;19920;-83
2021/05/11 06:45:00;;;;;;;;;;;19.90;99.90;;;;;;5076064;28;19913;-83
2021/05/11 06:47:55;;;;;;;;;;;19.50;99.90;;;;;;5077271;28;19962;-82
2021/05/11 06:53:34;;;;;;;;;;;18.80;99.90;;;;;;5098567;28;20456;-82
2021/05/11 06:55:43;;;;;;;;;;;18.60;99.90;;;;;;5071878;28;19927;-82
2021/05/11 06:58:09;;;;;;;;;;;18.40;99.90;;;;;;5080479;28;20010;-81
2021/05/11 07:00:35;;;;;;;;;;;18.20;99.90;;;;;;5077039;28;19920;-83
2021/05/11 07:03:00;;;;;;;;;;;18.20;99.90;;;;;;5087090;28;19954;-83
2021/05/11 07:05:29;;;;;;;;;;;18.20;99.90;;;;;;5086678;28;20288;-83
2021/05/11 07:08:14;;;;;;;;;;;18.20;99.90;;;;;;5087381;28;19919;-84
2021/05/11 07:10:41;;;;;;;;;;;18.30;99.90;;;;;;5075043;28;20339;-83
2021/05/11 07:13:13;;;;;;;;;;;18.40;99.90;;;;;;5079866;28;19924;-83
2021/05/11 07:15:40;;;;;;;;;;;18.60;99.90;;;;;;5069947;28;19958;-83
2021/05/11 07:18:13;;;;;;;;;;;18.90;99.90;;;;;;5085938;28;19966;-83
2021/05/11 07:20:39;;;;;;;;;;;19.10;99.90;;;;;;5087189;28;20372;-83
2021/05/11 07:23:05;;;;;;;;;;;19.40;99.90;;;;;;5087132;28;19912;-83
2021/05/11 07:25:36;;;;;;;;;;;19.60;99.90;;;;;;5087826;28;19920;-84
2021/05/11 07:30:33;;;;;;;;;;;20.10;99.90;;;;;;5076390;28;19985;-83
2021/05/11 07:32:59;;;;;;;;;;;20.30;99.90;;;;;;5079781;28;20013;-84
2021/05/11 07:35:25;;;;;;;;;;;20.50;99.90;;;;;;5082576;28;19912;-84
2021/05/11 07:37:51;;;;;;;;;;;20.70;99.90;;;;;;5081140;28;19980;-83
2021/05/11 07:40:16;;;;;;;;;;;20.60;99.90;;;;;;5071940;28;19955;-84
2021/05/11 07:42:42;;;;;;;;;;;20.50;99.90;;;;;;5068265;28;20288;-84
2021/05/11 07:45:10;;;;;;;;;;;20.40;99.90;;;;;;5077855;28;19912;-83
2021/05/11 08:04:40;;;;;;;;;;;19.70;99.90;;;;;;5073939;28;19923;-83
2021/05/11 08:18:15;;;;;;;;;;;19.30;99.90;;;;;;5089553;28;19979;-84
2021/05/11 08:28:17;;;;;;;;;;;19.90;99.90;;;;;;5079038;28;19924;-84
2021/05/11 08:30:43;;;;;;;;;;;20.30;99.90;;;;;;5088093;28;20348;-85
2021/05/11 08:33:08;;;;;;;;;;;20.70;99.90;;;;;;5088108;28;19919;-84
2021/05/11 08:35:33;;;;;;;;;;;20.80;99.90;;;;;;5088512;28;19921;-84
2021/05/11 08:37:59;;;;;;;;;;;20.70;99.90;;;;;;5073966;28;20449;-84
2021/05/11 08:40:25;;;;;;;;;;;20.60;99.90;;;;;;5083304;28;19962;-83
2021/05/11 08:42:51;;;;;;;;;;;20.60;99.90;;;;;;5081152;28;19921;-81
2021/05/11 08:45:17;;;;;;;;;;;20.60;99.90;;;;;;5087768;28;19919;-84
2021/05/11 08:47:49;;;;;;;;;;;20.60;99.90;;;;;;5080775;28;19917;-85
2021/05/11 08:50:20;;;;;;;;;;;20.90;99.90;;;;;;5085863;28;19917;-84
2021/05/11 08:52:59;;;;;;;;;;;21.80;99.90;;;;;;5088499;28;19923;-84
2021/05/11 09:06:39;;;;;;;;;;;23.20;99.90;;;;;;5087051;28;19920;-84
2021/05/11 09:09:22;;;;;;;;;;;23.60;99.90;;;;;;5088982;28;19979;-85
2021/05/11 09:25:34;;;;;;;;;;;35.00;78.30;;;;;;5077233;28;19980;-84
2021/05/11 09:28:20;;;;;;;;;;;36.30;75.40;;;;;;5086273;28;19992;-85
2021/05/11 09:33:25;;;;;;;;;;;34.80;70.90;;;;;;5079549;28;19972;-85
2021/05/11 09:58:51;;;;;;;;;;;25.00;78.70;;;;;;5086977;28;19912;-84
2021/05/11 10:48:21;;;;;;;;;;;19.20;96.10;;;;;;5084996;28;19939;-84
2021/05/11 10:50:48;;;;;;;;;;;19.20;96.30;;;;;;5082172;28;19955;-83
2021/05/11 10:53:32;;;;;;;;;;;19.10;96.80;;;;;;5080971;28;19912;-83
2021/05/11 10:56:16;;;;;;;;;;;19.10;97.20;;;;;;5076612;28;19920;-82
2021/05/11 10:59:01;;;;;;;;;;;19.10;97.70;;;;;;5087646;28;19913;-83
2021/05/11 11:01:33;;;;;;;;;;;19.10;98.10;;;;;;5074016;28;19913;-84
2021/05/11 11:04:07;;;;;;;;;;;19.10;98.40;;;;;;5079877;28;19934;-84
2021/05/11 11:06:52;;;;;;;;;;;19.10;98.70;;;;;;5072674;28;19913;-84
2021/05/11 11:09:17;;;;;;;;;;;19.00;98.80;;;;;;5080621;28;19962;-83
2021/05/11 11:11:43;;;;;;;;;;;19.00;99.10;;;;;;5081093;28;19912;-83
2021/05/11 11:14:09;;;;;;;;;;;19.00;99.30;;;;;;5080308;28;20426;-82
2021/05/11 11:16:34;;;;;;;;;;;19.00;99.60;;;;;;5068127;28;19916;-83
2021/05/11 11:19:09;;;;;;;;;;;19.00;99.80;;;;;;5076297;28;19931;-83
2021/05/11 11:24:29;;;;;;;;;;;18.90;99.90;;;;;;5068440;28;20373;-83
2021/05/11 11:26:57;;;;;;;;;;;18.80;99.90;;;;;;5065661;28;20430;-82
2021/05/11 11:29:23;;;;;;;;;;;18.80;99.90;;;;;;5064256;28;19923;-83
2021/05/11 11:31:49;;;;;;;;;;;18.80;99.90;;;;;;5072493;28;19999;-82
2021/05/11 11:34:24;;;;;;;;;;;18.80;99.90;;;;;;5076991;28;19913;-82
2021/05/11 11:37:00;;;;;;;;;;;18.70;99.90;;;;;;5073928;28;20384;-82
2021/05/11 11:39:25;;;;;;;;;;;18.70;99.90;;;;;;5074125;28;19912;-83
2021/05/11 11:41:52;;;;;;;;;;;18.60;99.90;;;;;;5074753;28;20000;-82
2021/05/11 11:44:18;;;;;;;;;;;18.50;99.90;;;;;;5075897;28;19942;-82
2021/05/11 11:46:44;;;;;;;;;;;18.50;99.90;;;;;;5074831;28;20013;-83
2021/05/11 11:49:15;;;;;;;;;;;18.50;99.90;;;;;;5076243;28;19920;-83
2021/05/11 11:51:41;;;;;;;;;;;18.50;99.90;;;;;;5077088;28;19909;-82
2021/05/11 11:54:20;;;;;;;;;;;18.50;99.90;;;;;;5078252;28;20261;-83
2021/05/11 11:59:29;;;;;;;;;;;18.40;99.90;;;;;;5078065;28;20031;-82
2021/05/11 12:02:00;;;;;;;;;;;18.50;99.90;;;;;;5079694;28;19951;-82
2021/05/11 12:04:26;;;;;;;;;;;18.50;99.90;;;;;;5072928;28;19920;-83
2021/05/11 12:06:52;;;;;;;;;;;18.60;99.90;;;;;;5079497;28;19913;-82
2021/05/11 12:09:23;;;;;;;;;;;18.70;99.90;;;;;;5074768;28;19920;-83
2021/05/11 12:11:48;;;;;;;;;;;18.80;99.90;;;;;;5077361;28;20270;-83
2021/05/11 12:14:14;;;;;;;;;;;19.00;99.90;;;;;;5079666;28;19935;-83
2021/05/11 12:16:41;;;;;;;;;;;19.10;99.90;;;;;;5078549;28;20281;-83
2021/05/11 12:19:23;;;;;;;;;;;19.30;99.90;;;;;;5074194;28;19909;-83
2021/05/11 12:21:48;;;;;;;;;;;19.40;99.90;;;;;;5069902;28;19912;-83
2021/05/11 12:24:14;;;;;;;;;;;19.50;99.90;;;;;;5072341;28;19928;-83
2021/05/11 12:26:44;;;;;;;;;;;19.70;99.90;;;;;;5069647;28;19954;-83
2021/05/11 12:29:13;;;;;;;;;;;19.80;99.90;;;;;;5078274;28;19913;-83
2021/05/11 12:31:43;;;;;;;;;;;19.90;99.90;;;;;;5078477;28;20284;-83
2021/05/11 12:34:15;;;;;;;;;;;20.00;99.90;;;;;;5077866;28;19909;-83
2021/05/11 12:36:47;;;;;;;;;;;20.00;99.90;;;;;;5066715;28;20382;-82
2021/05/11 12:39:16;;;;;;;;;;;19.90;99.90;;;;;;5077132;28;19994;-82
2021/05/11 12:41:41;;;;;;;;;;;19.80;99.90;;;;;;5076789;28;20342;-83
2021/05/11 12:44:06;;;;;;;;;;;19.80;99.90;;;;;;5078402;28;19912;-83
2021/05/11 12:46:36;;;;;;;;;;;19.90;99.90;;;;;;5078281;28;20426;-83
2021/05/11 12:49:01;;;;;;;;;;;20.00;99.90;;;;;;5077440;28;19920;-82
2021/05/11 12:51:44;;;;;;;;;;;20.10;99.90;;;;;;5076255;28;20139;-81
2021/05/11 12:54:21;;;;;;;;;;;20.30;99.90;;;;;;5078284;28;19908;-83
2021/05/11 12:57:33;;;;;;;;;;;20.50;99.90;;;;;;5078544;28;19916;-83
2021/05/11 12:59:51;;;;;;;;;;;20.70;99.90;;;;;;5066572;28;19915;-82
2021/05/11 13:13:48;;;;;;;;;;;20.40;99.90;;;;;;5018755;28;19914;-84
2021/05/11 13:21:38;;;;;;;;;;;20.10;99.90;;;;;;5077536;28;19957;-83
2021/05/11 13:32:06;;;;;;;;;;;19.40;99.90;;;;;;5076518;28;19912;-82
2021/05/11 13:34:34;;;;;;;;;;;19.30;99.90;;;;;;5074175;28;20327;-83
2021/05/11 13:37:00;;;;;;;;;;;19.20;99.90;;;;;;5077765;28;20273;-83
2021/05/11 13:39:26;;;;;;;;;;;19.10;99.90;;;;;;5075097;28;19912;-82
2021/05/11 13:41:51;;;;;;;;;;;19.00;99.90;;;;;;5077274;28;19912;-83
2021/05/11 13:44:19;;;;;;;;;;;19.00;99.90;;;;;;5069557;28;20012;-82
2021/05/11 13:46:45;;;;;;;;;;;18.90;99.90;;;;;;5073092;28;19917;-82
2021/05/11 13:49:13;;;;;;;;;;;18.70;99.90;;;;;;5076695;28;19951;-82
2021/05/11 13:51:39;;;;;;;;;;;18.70;99.90;;;;;;5076895;28;19955;-82
2021/05/11 13:54:06;;;;;;;;;;;18.70;99.90;;;;;;5076490;28;20384;-82
2021/05/11 14:04:39;;;;;;;;;;;18.90;99.90;;;;;;5048755;28;20400;-83
2021/05/11 14:07:05;;;;;;;;;;;19.00;99.90;;;;;;5072112;28;19909;-83
2021/05/11 14:09:31;;;;;;;;;;;19.10;99.90;;;;;;5076149;28;19917;-83
2021/05/11 14:11:56;;;;;;;;;;;19.10;99.90;;;;;;5071064;28;19919;-83
2021/05/11 14:14:22;;;;;;;;;;;19.20;99.90;;;;;;5076122;28;19984;-83
2021/05/11 14:16:47;;;;;;;;;;;19.30;99.90;;;;;;5075340;28;19919;-82
2021/05/11 14:19:14;;;;;;;;;;;19.30;99.90;;;;;;5067499;28;19995;-82
2021/05/11 14:21:39;;;;;;;;;;;19.40;99.90;;;;;;5073647;28;19913;-82
2021/05/11 14:24:05;;;;;;;;;;;19.50;99.90;;;;;;5072719;28;19916;-83
2021/05/11 14:26:31;;;;;;;;;;;19.60;99.90;;;;;;5068667;28;19931;-82
2021/05/11 14:28:57;;;;;;;;;;;19.70;99.90;;;;;;5070032;28;19985;-83
2021/05/11 14:31:23;;;;;;;;;;;19.70;99.90;;;;;;5074234;28;19908;-82
2021/05/11 14:33:50;;;;;;;;;;;19.80;99.90;;;;;;5070278;28;20463;-82
2021/05/11 14:36:15;;;;;;;;;;;19.90;99.90;;;;;;5075165;28;19952;-82
2021/05/11 14:38:41;;;;;;;;;;;20.00;99.90;;;;;;5071267;28;19954;-82
2021/05/11 14:41:07;;;;;;;;;;;20.20;99.90;;;;;;5068578;28;19927;-82
2021/05/11 14:43:33;;;;;;;;;;;20.30;99.90;;;;;;5072890;28;19991;-83
2021/05/11 14:45:59;;;;;;;;;;;20.40;99.90;;;;;;5077567;28;19913;-82
2021/05/11 14:48:25;;;;;;;;;;;20.60;99.90;;;;;;5067425;28;19943;-83
2021/05/11 14:50:50;;;;;;;;;;;20.60;99.90;;;;;;5072982;28;20368;-83
2021/05/11 14:53:16;;;;;;;;;;;20.60;99.90;;;;;;5065039;28;19913;-83
2021/05/11 14:55:42;;;;;;;;;;;20.60;99.90;;;;;;5077263;28;20376;-82
2021/05/11 14:58:07;;;;;;;;;;;20.60;99.90;;;;;;5077004;28;20007;-83
2021/05/11 15:00:33;;;;;;;;;;;20.80;99.90;;;;;;5076572;28;20008;-83
2021/05/11 15:02:58;;;;;;;;;;;21.00;99.90;;;;;;5077827;28;19912;-82
2021/05/11 15:05:24;;;;;;;;;;;21.20;99.90;;;;;;5067318;28;19919;-83
2021/05/11 15:07:49;;;;;;;;;;;21.30;99.90;;;;;;5077703;28;19912;-83
2021/05/11 15:10:15;;;;;;;;;;;21.50;99.90;;;;;;5076761;28;20339;-83
2021/05/11 15:12:41;;;;;;;;;;;21.50;99.90;;;;;;5078659;28;19947;-84
2021/05/11 15:15:08;;;;;;;;;;;21.50;99.90;;;;;;5073624;28;20300;-83
2021/05/11 15:19:59;;;;;;;;;;;21.60;99.90;;;;;;5077228;28;19912;-84
2021/05/11 15:22:25;;;;;;;;;;;21.50;99.90;;;;;;5080386;28;19912;-81
2021/05/11 15:24:51;;;;;;;;;;;21.30;99.90;;;;;;5087004;28;19921;-82
2021/05/11 15:27:17;;;;;;;;;;;21.00;99.90;;;;;;5084650;28;19912;-83
2021/05/11 15:29:42;;;;;;;;;;;20.70;99.90;;;;;;5081281;28;19963;-83
2021/05/11 15:32:27;;;;;;;;;;;20.40;99.90;;;;;;5081384;28;19919;-84
2021/05/11 15:34:52;;;;;;;;;;;20.10;99.90;;;;;;5084351;28;19916;-83
2021/05/11 15:37:18;;;;;;;;;;;19.70;99.90;;;;;;5084460;28;19935;-82
2021/05/11 15:39:44;;;;;;;;;;;19.40;99.90;;;;;;5074069;28;19913;-82
2021/05/11 15:42:10;;;;;;;;;;;19.20;99.90;;;;;;5080817;28;19916;-84
2021/05/11 15:44:35;;;;;;;;;;;18.90;99.90;;;;;;5080299;28;19916;-83
2021/05/11 15:47:01;;;;;;;;;;;18.70;99.90;;;;;;5079999;28;19943;-83
2021/05/11 15:49:26;;;;;;;;;;;18.50;99.90;;;;;;5081052;28;19916;-83
2021/05/11 15:51:51;;;;;;;;;;;18.40;99.90;;;;;;5080453;28;19920;-83
2021/05/11 15:54:17;;;;;;;;;;;18.20;99.90;;;;;;5081743;28;19914;-84
2021/05/11 15:56:43;;;;;;;;;;;18.10;99.90;;;;;;5076805;28;19916;-84
2021/05/11 15:59:09;;;;;;;;;;;18.10;99.90;;;;;;5080281;28;19913;-83
2021/05/11 16:01:34;;;;;;;;;;;18.00;99.90;;;;;;5079710;28;20386;-83
2021/05/11 16:04:00;;;;;;;;;;;17.90;99.90;;;;;;5077993;28;19917;-84
2021/05/11 16:06:25;;;;;;;;;;;17.80;99.90;;;;;;5065311;28;19920;-83
2021/05/11 16:08:51;;;;;;;;;;;17.70;99.90;;;;;;5060772;28;19913;-84
2021/05/11 16:11:16;;;;;;;;;;;17.60;99.90;;;;;;5079210;28;19916;-83
2021/05/11 16:13:42;;;;;;;;;;;17.50;99.90;;;;;;5080293;28;19913;-84
2021/05/11 16:16:07;;;;;;;;;;;17.50;99.90;;;;;;5079687;28;19912;-82
2021/05/11 16:18:33;;;;;;;;;;;17.50;99.90;;;;;;5069449;28;19909;-83
2021/05/11 16:20:59;;;;;;;;;;;17.50;99.90;;;;;;5064591;28;19913;-82
2021/05/11 16:23:24;;;;;;;;;;;17.50;99.90;;;;;;5079903;28;19913;-82
2021/05/11 16:25:50;;;;;;;;;;;17.50;99.90;;;;;;5083522;28;19913;-81
2021/05/11 16:28:16;;;;;;;;;;;17.50;99.90;;;;;;5072159;28;19934;-83
2021/05/11 16:30:41;;;;;;;;;;;17.50;99.90;;;;;;5081530;28;19916;-83
2021/05/11 16:33:09;;;;;;;;;;;17.60;99.90;;;;;;5080339;28;19913;-82
2021/05/11 16:35:35;;;;;;;;;;;17.70;99.90;;;;;;5075540;28;19913;-83
2021/05/11 16:38:00;;;;;;;;;;;17.70;99.90;;;;;;5078045;28;19918;-82
2021/05/11 16:40:26;;;;;;;;;;;17.80;99.90;;;;;;5078804;28;20387;-83
2021/05/11 16:42:55;;;;;;;;;;;17.80;99.90;;;;;;5073750;28;19919;-82
2021/05/11 16:45:21;;;;;;;;;;;17.90;99.90;;;;;;5065511;28;19913;-83
2021/05/11 16:47:56;;;;;;;;;;;17.90;99.90;;;;;;5079375;28;19912;-83
2021/05/11 16:50:29;;;;;;;;;;;17.90;99.90;;;;;;5067053;28;19917;-83
2021/05/11 16:52:55;;;;;;;;;;;17.90;99.90;;;;;;5074614;28;19919;-82
2021/05/11 16:55:21;;;;;;;;;;;17.90;99.90;;;;;;5078477;28;20403;-82
2021/05/11 16:57:47;;;;;;;;;;;17.90;99.90;;;;;;5075549;28;19914;-82
2021/05/11 17:00:12;;;;;;;;;;;17.90;99.90;;;;;;5074701;28;19973;-84
2021/05/11 17:02:38;;;;;;;;;;;17.90;99.90;;;;;;5075545;28;19919;-82
2021/05/11 17:05:03;;;;;;;;;;;17.90;99.90;;;;;;5071817;28;19913;-82
2021/05/11 17:07:29;;;;;;;;;;;17.90;99.90;;;;;;5068684;28;20469;-81
2021/05/11 17:09:54;;;;;;;;;;;17.80;99.90;;;;;;5070301;28;20007;-81
2021/05/11 17:12:20;;;;;;;;;;;17.80;99.90;;;;;;5070802;28;19935;-82
2021/05/11 17:14:45;;;;;;;;;;;17.70;99.90;;;;;;5066724;28;19944;-81
2021/05/11 17:17:11;;;;;;;;;;;17.70;99.90;;;;;;5074031;28;19938;-81
2021/05/11 17:19:36;;;;;;;;;;;17.60;99.90;;;;;;5077548;28;19912;-82
2021/05/11 17:22:02;;;;;;;;;;;17.60;99.90;;;;;;5077076;28;20003;-82
2021/05/11 17:24:28;;;;;;;;;;;17.60;99.90;;;;;;5076808;28;19912;-80
2021/05/11 17:26:54;;;;;;;;;;;17.60;99.90;;;;;;5079090;28;19995;-80
2021/05/11 17:29:20;;;;;;;;;;;17.60;99.90;;;;;;5075955;28;19943;-82
2021/05/11 17:31:47;;;;;;;;;;;17.50;99.90;;;;;;5078761;28;19912;-82
2021/05/11 17:34:15;;;;;;;;;;;17.50;99.90;;;;;;5079330;28;20003;-82
2021/05/11 17:36:41;;;;;;;;;;;17.50;99.90;;;;;;5079894;28;19908;-82
2021/05/11 17:39:09;;;;;;;;;;;17.40;99.90;;;;;;5074960;28;19920;-82
2021/05/11 17:41:35;;;;;;;;;;;17.40;99.90;;;;;;5069543;28;19913;-81
2021/05/11 17:44:01;;;;;;;;;;;17.40;99.90;;;;;;5076039;28;19912;-82
2021/05/11 17:46:26;;;;;;;;;;;17.40;99.90;;;;;;5072974;28;19916;-82
2021/05/11 17:48:52;;;;;;;;;;;17.40;99.90;;;;;;5082116;28;19967;-83
2021/05/11 17:51:17;;;;;;;;;;;17.30;99.90;;;;;;5076122;28;19920;-83
2021/05/11 17:53:43;;;;;;;;;;;17.30;99.90;;;;;;5077058;28;20299;-83
2021/05/11 17:56:09;;;;;;;;;;;17.30;99.90;;;;;;5077244;28;19916;-83
2021/05/11 17:58:34;;;;;;;;;;;17.20;99.90;;;;;;5074230;28;20015;-83
2021/05/11 18:01:00;;;;;;;;;;;17.20;99.90;;;;;;5077297;28;19956;-83
2021/05/11 18:03:25;;;;;;;;;;;17.00;99.90;;;;;;5076476;28;19913;-82
2021/05/11 18:05:51;;;;;;;;;;;16.90;99.90;;;;;;5074879;28;20449;-83
2021/05/11 18:08:22;;;;;;;;;;;16.80;99.90;;;;;;5068065;28;20019;-81
2021/05/11 18:10:47;;;;;;;;;;;16.60;99.90;;;;;;5070636;28;19938;-82
2021/05/11 18:13:13;;;;;;;;;;;16.50;99.90;;;;;;5071430;28;19912;-82
2021/05/11 18:15:38;;;;;;;;;;;16.30;99.90;;;;;;5077133;28;19920;-81
2021/05/11 18:18:04;;;;;;;;;;;16.20;99.90;;;;;;5058085;28;20475;-82
2021/05/11 18:20:29;;;;;;;;;;;16.00;99.90;;;;;;5093459;28;19920;-82
2021/05/11 18:28:05;;;;;;;;;;;15.70;99.90;;;;;;4804296;26;19924;-82
2021/05/11 18:30:31;;;;;;;;;;;15.60;99.90;;;;;;5090325;28;19923;-81
2021/05/11 18:32:57;;;;;;;;;;;15.60;99.90;;;;;;5083152;28;20303;-82
2021/05/11 18:35:25;;;;;;;;;;;15.40;99.90;;;;;;5059653;28;19912;-81
2021/05/11 18:40:16;;;;;;;;;;;15.40;99.90;;;;;;5064635;28;19908;-82
2021/05/11 18:42:42;;;;;;;;;;;15.40;99.90;;;;;;5072198;28;19921;-80
2021/05/11 18:45:08;;;;;;;;;;;15.40;99.90;;;;;;5062625;28;20000;-82
2021/05/11 18:47:33;;;;;;;;;;;15.30;99.90;;;;;;5053064;28;19917;-83
2021/05/11 18:49:59;;;;;;;;;;;15.40;99.90;;;;;;5065530;28;19924;-82
2021/05/11 18:52:25;;;;;;;;;;;15.20;99.90;;;;;;5075228;28;20094;-82
2021/05/11 18:54:53;;;;;;;;;;;15.20;99.90;;;;;;5067253;28;19921;-81
2021/05/11 18:57:18;;;;;;;;;;;15.10;99.90;;;;;;5056175;28;19932;-82
2021/05/11 19:00:01;;;;;;;;;;;;;;;;;;;;;
2021/05/11 19:02:37;;;;;;;;;;;;;;;;;;;;;
2021/05/11 19:05:48;;;;;;;;;;;;;;;;;;;;;
2021/05/11 19:14:23;;;;;;;;;;;14.90;99.90;;;;;;5055019;22;19932;-81
2021/05/11 19:16:54;;;;;;;;;;;15.00;99.90;;;;;;5059089;28;19944;-81
2021/05/11 19:19:42;;;;;;;;;;;14.90;99.90;;;;;;5056273;28;19917;-81
2021/05/11 19:22:32;;;;;;;;;;;15.00;99.90;;;;;;5058645;28;19905;-81
2021/05/11 19:45:43;;;;;;;;;;;14.80;99.90;;;;;;4957005;28;19917;-81
2021/05/11 19:48:11;;;;;;;;;;;14.90;99.90;;;;;;5018004;28;19964;-83
2021/05/11 19:50:36;;;;;;;;;;;14.90;99.90;;;;;;5030757;28;19921;-82
2021/05/11 19:53:02;;;;;;;;;;;14.90;99.90;;;;;;5035076;28;19935;-82
2021/05/11 19:55:27;;;;;;;;;;;14.80;99.90;;;;;;5037637;28;20425;-81
2021/05/11 19:57:53;;;;;;;;;;;14.80;99.90;;;;;;5037487;28;19919;-81
2021/05/11 20:00:19;;;;;;;;;;;14.70;99.90;;;;;;5037738;28;19932;-82
2021/05/11 20:02:44;;;;;;;;;;;14.60;99.90;;;;;;5040414;28;19932;-81
2021/05/11 20:05:10;;;;;;;;;;;14.50;99.90;;;;;;5039988;28;19960;-81
2021/05/11 20:07:36;;;;;;;;;;;14.40;99.90;;;;;;5039278;28;19936;-82
2021/05/11 20:10:01;;;;;;;;;;;14.30;99.90;;;;;;5033987;28;19917;-82
2021/05/11 20:12:28;;;;;;;;;;;14.20;99.90;;;;;;5036459;28;19920;-81
2021/05/11 20:14:53;;;;;;;;;;;14.20;99.90;;;;;;5041796;28;20555;-82
2021/05/11 20:17:19;;;;;;;;;;;14.10;99.90;;;;;;5036217;28;19924;-82
2021/05/11 20:19:44;;;;;;;;;;;14.10;99.90;;;;;;5037042;28;20040;-81
2021/05/11 20:22:10;;;;;;;;;;;14.00;99.90;;;;;;5036707;28;19921;-83
2021/05/11 20:24:35;;;;;;;;;;;14.00;99.90;;;;;;5031259;28;19946;-83
2021/05/11 20:27:01;;;;;;;;;;;13.90;99.90;;;;;;5035051;28;19987;-82